sensor_id;sensor_type;location;lat;lon;timestamp;P1;durP1;ratioP1;P2;durP2;ratioP2
14377;SDS011;7272;53.668;9.578;2024-02-26T00:01:18;5.10;;;4.70;;
14377;SDS011;7272;53.668;9.578;2024-02-26T00:04:19;4.13;;;3.83;;
14377;SDS011;7272;53.668;9.578;2024-02-26T00:07:22;4.00;;;3.70;;
14377;SDS011;7272;53.668;9.578;2024-02-26T00:10:24;4.07;;;3.77;;
14377;SDS011;7272;53.668;9.578;2024-02-26T00:13:25;3.60;;;3.40;;
14377;SDS011;7272;53.668;9.578;2024-02-26T00:16:26;3.83;;;3.53;;
14377;SDS011;7272;53.668;9.578;2024-02-26T00:19:27;5.80;;;5.30;;
14377;SDS011;7272;53.668;9.578;2024-02-26T00:22:29;4.37;;;4.07;;
14377;SDS011;7272;53.668;9.578;2024-02-26T00:25:30;4.60;;;4.27;;
14377;SDS011;7272;53.668;9.578;2024-02-26T00:28:31;4.70;;;4.30;;
14377;SDS011;7272;53.668;9.578;2024-02-26T00:31:33;5.67;;;5.13;;
14377;SDS011;7272;53.668;9.578;2024-02-26T00:34:34;5.27;;;4.87;;
14377;SDS011;7272;53.668;9.578;2024-02-26T00:37:36;5.83;;;5.33;;
14377;SDS011;7272;53.668;9.578;2024-02-26T00:40:37;39.23;;;8.63;;
14377;SDS011;7272;53.668;9.578;2024-02-26T00:43:38;23.60;;;7.43;;
14377;SDS011;7272;53.668;9.578;2024-02-26T00:46:42;8.20;;;6.40;;
14377;SDS011;7272;53.668;9.578;2024-02-26T00:49:44;8.00;;;6.83;;
14377;SDS011;7272;53.668;9.578;2024-02-26T00:52:46;7.77;;;6.93;;
14377;SDS011;7272;53.668;9.578;2024-02-26T00:55:47;6.03;;;5.43;;
14377;SDS011;7272;53.668;9.578;2024-02-26T00:58:48;6.77;;;6.00;;
14377;SDS011;7272;53.668;9.578;2024-02-26T01:01:49;7.73;;;7.00;;
14377;SDS011;7272;53.668;9.578;2024-02-26T01:04:51;6.57;;;5.77;;
14377;SDS011;7272;53.668;9.578;2024-02-26T01:07:53;4.27;;;3.97;;
14377;SDS011;7272;53.668;9.578;2024-02-26T01:10:54;4.77;;;4.37;;
14377;SDS011;7272;53.668;9.578;2024-02-26T01:13:55;4.43;;;4.13;;
14377;SDS011;7272;53.668;9.578;2024-02-26T01:16:57;7.90;;;7.10;;
14377;SDS011;7272;53.668;9.578;2024-02-26T01:19:58;7.00;;;6.40;;
14377;SDS011;7272;53.668;9.578;2024-02-26T01:23:00;6.43;;;5.83;;
14377;SDS011;7272;53.668;9.578;2024-02-26T01:26:02;15.70;;;8.53;;
14377;SDS011;7272;53.668;9.578;2024-02-26T01:29:05;136.23;;;13.30;;
14377;SDS011;7272;53.668;9.578;2024-02-26T01:32:06;27.33;;;8.27;;
14377;SDS011;7272;53.668;9.578;2024-02-26T01:35:07;9.93;;;7.83;;
14377;SDS011;7272;53.668;9.578;2024-02-26T01:38:11;7.40;;;6.70;;
14377;SDS011;7272;53.668;9.578;2024-02-26T01:41:13;21.50;;;9.07;;
14377;SDS011;7272;53.668;9.578;2024-02-26T01:44:15;114.83;;;13.33;;
14377;SDS011;7272;53.668;9.578;2024-02-26T01:47:16;19.37;;;10.33;;
14377;SDS011;7272;53.668;9.578;2024-02-26T01:50:18;16.47;;;11.50;;
14377;SDS011;7272;53.668;9.578;2024-02-26T01:53:20;15.30;;;10.60;;
14377;SDS011;7272;53.668;9.578;2024-02-26T01:56:22;16.10;;;11.27;;
14377;SDS011;7272;53.668;9.578;2024-02-26T01:59:28;14.87;;;11.60;;
14377;SDS011;7272;53.668;9.578;2024-02-26T02:02:29;13.97;;;11.77;;
14377;SDS011;7272;53.668;9.578;2024-02-26T02:05:31;11.50;;;10.00;;
14377;SDS011;7272;53.668;9.578;2024-02-26T02:08:34;16.10;;;13.00;;
14377;SDS011;7272;53.668;9.578;2024-02-26T02:11:36;16.17;;;12.13;;
14377;SDS011;7272;53.668;9.578;2024-02-26T02:14:38;21.27;;;14.97;;
14377;SDS011;7272;53.668;9.578;2024-02-26T02:17:39;21.20;;;14.53;;
14377;SDS011;7272;53.668;9.578;2024-02-26T02:20:41;19.90;;;15.73;;
14377;SDS011;7272;53.668;9.578;2024-02-26T02:23:42;19.17;;;14.17;;
14377;SDS011;7272;53.668;9.578;2024-02-26T02:26:46;14.50;;;12.17;;
14377;SDS011;7272;53.668;9.578;2024-02-26T02:29:47;17.97;;;13.10;;
14377;SDS011;7272;53.668;9.578;2024-02-26T02:32:49;16.77;;;13.60;;
14377;SDS011;7272;53.668;9.578;2024-02-26T02:35:52;22.10;;;15.60;;
14377;SDS011;7272;53.668;9.578;2024-02-26T02:38:55;41.27;;;17.77;;
14377;SDS011;7272;53.668;9.578;2024-02-26T02:41:56;58.67;;;19.73;;
14377;SDS011;7272;53.668;9.578;2024-02-26T02:44:57;8.63;;;7.53;;
14377;SDS011;7272;53.668;9.578;2024-02-26T02:47:59;9.77;;;8.43;;
14377;SDS011;7272;53.668;9.578;2024-02-26T02:51:00;13.10;;;8.50;;
14377;SDS011;7272;53.668;9.578;2024-02-26T02:54:02;53.47;;;15.03;;
14377;SDS011;7272;53.668;9.578;2024-02-26T02:57:03;78.90;;;17.13;;
14377;SDS011;7272;53.668;9.578;2024-02-26T03:00:05;65.47;;;15.07;;
14377;SDS011;7272;53.668;9.578;2024-02-26T03:03:07;66.47;;;16.90;;
14377;SDS011;7272;53.668;9.578;2024-02-26T03:06:09;118.13;;;21.60;;
14377;SDS011;7272;53.668;9.578;2024-02-26T03:09:10;124.00;;;23.03;;
14377;SDS011;7272;53.668;9.578;2024-02-26T03:12:11;185.70;;;26.30;;
14377;SDS011;7272;53.668;9.578;2024-02-26T03:15:13;132.50;;;24.60;;
14377;SDS011;7272;53.668;9.578;2024-02-26T03:18:14;144.10;;;23.47;;
14377;SDS011;7272;53.668;9.578;2024-02-26T03:21:16;111.00;;;23.80;;
14377;SDS011;7272;53.668;9.578;2024-02-26T03:24:18;75.53;;;17.80;;
14377;SDS011;7272;53.668;9.578;2024-02-26T03:27:19;72.70;;;18.07;;
14377;SDS011;7272;53.668;9.578;2024-02-26T03:30:20;89.73;;;20.30;;
14377;SDS011;7272;53.668;9.578;2024-02-26T03:33:22;66.17;;;19.43;;
14377;SDS011;7272;53.668;9.578;2024-02-26T03:36:24;62.90;;;21.50;;
14377;SDS011;7272;53.668;9.578;2024-02-26T03:39:25;123.37;;;27.67;;
14377;SDS011;7272;53.668;9.578;2024-02-26T03:42:26;103.57;;;25.57;;
14377;SDS011;7272;53.668;9.578;2024-02-26T03:45:28;90.23;;;24.70;;
14377;SDS011;7272;53.668;9.578;2024-02-26T03:48:29;139.40;;;31.13;;
14377;SDS011;7272;53.668;9.578;2024-02-26T03:51:31;81.87;;;24.00;;
14377;SDS011;7272;53.668;9.578;2024-02-26T03:54:33;179.93;;;32.83;;
14377;SDS011;7272;53.668;9.578;2024-02-26T03:57:34;60.03;;;16.13;;
14377;SDS011;7272;53.668;9.578;2024-02-26T04:00:36;126.97;;;26.73;;
14377;SDS011;7272;53.668;9.578;2024-02-26T04:03:37;98.93;;;22.40;;
14377;SDS011;7272;53.668;9.578;2024-02-26T04:06:39;76.43;;;20.57;;
14377;SDS011;7272;53.668;9.578;2024-02-26T04:09:44;116.07;;;24.00;;
14377;SDS011;7272;53.668;9.578;2024-02-26T04:12:45;178.13;;;33.13;;
14377;SDS011;7272;53.668;9.578;2024-02-26T04:15:46;182.47;;;32.30;;
14377;SDS011;7272;53.668;9.578;2024-02-26T04:18:48;206.60;;;31.80;;
14377;SDS011;7272;53.668;9.578;2024-02-26T04:21:50;229.80;;;33.40;;
14377;SDS011;7272;53.668;9.578;2024-02-26T04:24:51;179.10;;;28.83;;
14377;SDS011;7272;53.668;9.578;2024-02-26T04:27:52;152.57;;;26.73;;
14377;SDS011;7272;53.668;9.578;2024-02-26T04:30:53;341.33;;;41.77;;
14377;SDS011;7272;53.668;9.578;2024-02-26T04:33:55;290.30;;;38.90;;
14377;SDS011;7272;53.668;9.578;2024-02-26T04:36:56;276.50;;;37.93;;
14377;SDS011;7272;53.668;9.578;2024-02-26T04:39:58;254.17;;;33.47;;
14377;SDS011;7272;53.668;9.578;2024-02-26T04:42:59;214.20;;;30.33;;
14377;SDS011;7272;53.668;9.578;2024-02-26T04:46:01;126.60;;;24.10;;
14377;SDS011;7272;53.668;9.578;2024-02-26T04:49:02;177.13;;;27.23;;
14377;SDS011;7272;53.668;9.578;2024-02-26T04:52:04;248.93;;;34.13;;
14377;SDS011;7272;53.668;9.578;2024-02-26T04:55:06;97.73;;;21.83;;
14377;SDS011;7272;53.668;9.578;2024-02-26T04:58:08;168.33;;;28.70;;
14377;SDS011;7272;53.668;9.578;2024-02-26T05:01:09;193.53;;;29.37;;
14377;SDS011;7272;53.668;9.578;2024-02-26T05:04:11;196.70;;;28.00;;
14377;SDS011;7272;53.668;9.578;2024-02-26T05:07:13;225.47;;;34.07;;
14377;SDS011;7272;53.668;9.578;2024-02-26T05:10:14;65.70;;;18.77;;
14377;SDS011;7272;53.668;9.578;2024-02-26T05:13:15;109.50;;;24.57;;
14377;SDS011;7272;53.668;9.578;2024-02-26T05:16:18;43.33;;;15.17;;
14377;SDS011;7272;53.668;9.578;2024-02-26T05:19:21;57.67;;;17.97;;
14377;SDS011;7272;53.668;9.578;2024-02-26T05:22:23;48.90;;;15.60;;
14377;SDS011;7272;53.668;9.578;2024-02-26T05:25:24;30.00;;;12.00;;
14377;SDS011;7272;53.668;9.578;2024-02-26T05:28:25;66.60;;;18.70;;
14377;SDS011;7272;53.668;9.578;2024-02-26T05:31:27;55.83;;;19.13;;
14377;SDS011;7272;53.668;9.578;2024-02-26T05:34:29;79.37;;;21.50;;
14377;SDS011;7272;53.668;9.578;2024-02-26T05:37:31;22.60;;;12.13;;
14377;SDS011;7272;53.668;9.578;2024-02-26T05:40:32;115.80;;;24.10;;
14377;SDS011;7272;53.668;9.578;2024-02-26T05:43:33;94.97;;;20.83;;
14377;SDS011;7272;53.668;9.578;2024-02-26T05:46:35;62.10;;;18.87;;
14377;SDS011;7272;53.668;9.578;2024-02-26T05:49:36;97.97;;;23.97;;
14377;SDS011;7272;53.668;9.578;2024-02-26T05:52:38;103.40;;;22.60;;
14377;SDS011;7272;53.668;9.578;2024-02-26T05:55:40;71.13;;;15.97;;
14377;SDS011;7272;53.668;9.578;2024-02-26T05:58:42;65.43;;;17.67;;
14377;SDS011;7272;53.668;9.578;2024-02-26T06:01:43;116.13;;;24.87;;
14377;SDS011;7272;53.668;9.578;2024-02-26T06:04:44;114.83;;;23.33;;
14377;SDS011;7272;53.668;9.578;2024-02-26T06:07:47;65.03;;;18.00;;
14377;SDS011;7272;53.668;9.578;2024-02-26T06:10:48;85.87;;;20.10;;
14377;SDS011;7272;53.668;9.578;2024-02-26T06:13:49;172.10;;;25.50;;
14377;SDS011;7272;53.668;9.578;2024-02-26T06:16:51;178.73;;;25.30;;
14377;SDS011;7272;53.668;9.578;2024-02-26T06:19:52;93.93;;;20.87;;
14377;SDS011;7272;53.668;9.578;2024-02-26T06:22:54;181.70;;;28.40;;
14377;SDS011;7272;53.668;9.578;2024-02-26T06:25:55;170.77;;;26.37;;
14377;SDS011;7272;53.668;9.578;2024-02-26T06:28:56;119.40;;;24.20;;
14377;SDS011;7272;53.668;9.578;2024-02-26T06:31:57;65.37;;;20.43;;
14377;SDS011;7272;53.668;9.578;2024-02-26T06:34:59;62.83;;;21.33;;
14377;SDS011;7272;53.668;9.578;2024-02-26T06:38:01;59.27;;;20.97;;
14377;SDS011;7272;53.668;9.578;2024-02-26T06:41:02;69.03;;;23.40;;
14377;SDS011;7272;53.668;9.578;2024-02-26T06:44:04;40.27;;;19.83;;
14377;SDS011;7272;53.668;9.578;2024-02-26T06:47:05;39.03;;;19.83;;
14377;SDS011;7272;53.668;9.578;2024-02-26T06:50:06;36.17;;;18.93;;
14377;SDS011;7272;53.668;9.578;2024-02-26T06:53:09;32.50;;;18.07;;
14377;SDS011;7272;53.668;9.578;2024-02-26T06:56:10;35.07;;;18.87;;
14377;SDS011;7272;53.668;9.578;2024-02-26T06:59:11;24.33;;;15.73;;
14377;SDS011;7272;53.668;9.578;2024-02-26T07:02:12;19.97;;;13.23;;
14377;SDS011;7272;53.668;9.578;2024-02-26T07:05:14;12.20;;;10.23;;
14377;SDS011;7272;53.668;9.578;2024-02-26T07:08:16;13.53;;;10.63;;
14377;SDS011;7272;53.668;9.578;2024-02-26T07:11:17;14.73;;;11.63;;
14377;SDS011;7272;53.668;9.578;2024-02-26T07:14:20;27.90;;;16.23;;
14377;SDS011;7272;53.668;9.578;2024-02-26T07:17:21;21.47;;;14.83;;
14377;SDS011;7272;53.668;9.578;2024-02-26T07:20:22;19.37;;;13.97;;
14377;SDS011;7272;53.668;9.578;2024-02-26T07:23:25;23.87;;;15.20;;
14377;SDS011;7272;53.668;9.578;2024-02-26T07:26:26;20.77;;;15.17;;
14377;SDS011;7272;53.668;9.578;2024-02-26T07:29:30;27.67;;;16.97;;
14377;SDS011;7272;53.668;9.578;2024-02-26T07:32:31;24.77;;;16.70;;
14377;SDS011;7272;53.668;9.578;2024-02-26T07:35:32;28.20;;;16.23;;
14377;SDS011;7272;53.668;9.578;2024-02-26T07:38:34;25.20;;;16.03;;
14377;SDS011;7272;53.668;9.578;2024-02-26T07:41:35;23.90;;;16.30;;
14377;SDS011;7272;53.668;9.578;2024-02-26T07:44:39;30.93;;;17.87;;
14377;SDS011;7272;53.668;9.578;2024-02-26T07:47:43;19.23;;;14.20;;
14377;SDS011;7272;53.668;9.578;2024-02-26T07:50:44;20.67;;;14.27;;
14377;SDS011;7272;53.668;9.578;2024-02-26T07:53:46;22.47;;;15.60;;
14377;SDS011;7272;53.668;9.578;2024-02-26T07:56:48;18.50;;;14.47;;
14377;SDS011;7272;53.668;9.578;2024-02-26T07:59:49;14.70;;;12.63;;
14377;SDS011;7272;53.668;9.578;2024-02-26T08:02:50;25.20;;;15.17;;
14377;SDS011;7272;53.668;9.578;2024-02-26T08:05:51;17.33;;;12.93;;
14377;SDS011;7272;53.668;9.578;2024-02-26T08:08:53;18.30;;;14.97;;
14377;SDS011;7272;53.668;9.578;2024-02-26T08:11:54;18.53;;;14.60;;
14377;SDS011;7272;53.668;9.578;2024-02-26T08:14:56;20.50;;;14.93;;
14377;SDS011;7272;53.668;9.578;2024-02-26T08:17:58;23.13;;;15.60;;
14377;SDS011;7272;53.668;9.578;2024-02-26T08:21:02;15.93;;;12.73;;
14377;SDS011;7272;53.668;9.578;2024-02-26T08:24:05;18.93;;;13.80;;
14377;SDS011;7272;53.668;9.578;2024-02-26T08:27:06;16.97;;;13.03;;
14377;SDS011;7272;53.668;9.578;2024-02-26T08:30:08;14.53;;;11.90;;
14377;SDS011;7272;53.668;9.578;2024-02-26T08:33:10;12.77;;;10.97;;
14377;SDS011;7272;53.668;9.578;2024-02-26T08:36:11;13.30;;;11.47;;
14377;SDS011;7272;53.668;9.578;2024-02-26T08:39:14;11.73;;;10.33;;
14377;SDS011;7272;53.668;9.578;2024-02-26T08:42:17;15.77;;;12.23;;
14377;SDS011;7272;53.668;9.578;2024-02-26T08:45:18;13.70;;;11.37;;
14377;SDS011;7272;53.668;9.578;2024-02-26T08:48:19;15.17;;;13.00;;
14377;SDS011;7272;53.668;9.578;2024-02-26T08:51:21;12.97;;;11.57;;
14377;SDS011;7272;53.668;9.578;2024-02-26T08:54:22;14.03;;;11.97;;
14377;SDS011;7272;53.668;9.578;2024-02-26T08:57:24;14.70;;;12.33;;
14377;SDS011;7272;53.668;9.578;2024-02-26T09:00:27;13.60;;;12.17;;
14377;SDS011;7272;53.668;9.578;2024-02-26T09:03:28;12.63;;;10.67;;
14377;SDS011;7272;53.668;9.578;2024-02-26T09:06:29;12.47;;;11.00;;
14377;SDS011;7272;53.668;9.578;2024-02-26T09:09:31;14.33;;;12.07;;
14377;SDS011;7272;53.668;9.578;2024-02-26T09:12:32;14.87;;;12.27;;
14377;SDS011;7272;53.668;9.578;2024-02-26T09:15:34;14.40;;;12.00;;
14377;SDS011;7272;53.668;9.578;2024-02-26T09:18:35;13.90;;;12.40;;
14377;SDS011;7272;53.668;9.578;2024-02-26T09:21:36;13.93;;;12.53;;
14377;SDS011;7272;53.668;9.578;2024-02-26T09:24:43;13.43;;;12.03;;
14377;SDS011;7272;53.668;9.578;2024-02-26T09:27:44;13.43;;;12.03;;
14377;SDS011;7272;53.668;9.578;2024-02-26T09:30:45;13.13;;;11.83;;
14377;SDS011;7272;53.668;9.578;2024-02-26T09:33:47;13.13;;;11.83;;
14377;SDS011;7272;53.668;9.578;2024-02-26T09:36:48;14.70;;;13.10;;
14377;SDS011;7272;53.668;9.578;2024-02-26T09:39:50;14.97;;;12.47;;
14377;SDS011;7272;53.668;9.578;2024-02-26T09:42:52;13.23;;;11.83;;
14377;SDS011;7272;53.668;9.578;2024-02-26T09:45:59;14.00;;;12.43;;
14377;SDS011;7272;53.668;9.578;2024-02-26T09:49:01;14.10;;;11.27;;
14377;SDS011;7272;53.668;9.578;2024-02-26T09:52:03;13.80;;;12.37;;
14377;SDS011;7272;53.668;9.578;2024-02-26T09:55:07;13.90;;;12.03;;
14377;SDS011;7272;53.668;9.578;2024-02-26T09:58:09;13.70;;;12.23;;
14377;SDS011;7272;53.668;9.578;2024-02-26T10:01:12;14.10;;;12.63;;
14377;SDS011;7272;53.668;9.578;2024-02-26T10:04:17;13.60;;;12.20;;
14377;SDS011;7272;53.668;9.578;2024-02-26T10:07:19;12.80;;;11.53;;
14377;SDS011;7272;53.668;9.578;2024-02-26T10:10:21;12.40;;;11.10;;
14377;SDS011;7272;53.668;9.578;2024-02-26T10:13:23;11.23;;;10.03;;
14377;SDS011;7272;53.668;9.578;2024-02-26T10:16:25;13.10;;;11.70;;
14377;SDS011;7272;53.668;9.578;2024-02-26T10:19:27;12.77;;;11.20;;
14377;SDS011;7272;53.668;9.578;2024-02-26T10:22:29;11.10;;;10.00;;
14377;SDS011;7272;53.668;9.578;2024-02-26T10:25:31;12.53;;;11.23;;
14377;SDS011;7272;53.668;9.578;2024-02-26T10:28:32;12.83;;;11.53;;
14377;SDS011;7272;53.668;9.578;2024-02-26T10:31:34;12.37;;;11.07;;
14377;SDS011;7272;53.668;9.578;2024-02-26T10:34:35;13.07;;;10.80;;
14377;SDS011;7272;53.668;9.578;2024-02-26T10:37:38;12.10;;;10.90;;
14377;SDS011;7272;53.668;9.578;2024-02-26T10:40:41;13.57;;;12.17;;
14377;SDS011;7272;53.668;9.578;2024-02-26T10:43:42;12.70;;;11.40;;
14377;SDS011;7272;53.668;9.578;2024-02-26T10:46:43;14.33;;;12.83;;
14377;SDS011;7272;53.668;9.578;2024-02-26T10:49:47;12.03;;;10.70;;
14377;SDS011;7272;53.668;9.578;2024-02-26T10:52:49;13.90;;;12.40;;
14377;SDS011;7272;53.668;9.578;2024-02-26T10:55:54;12.23;;;11.03;;
14377;SDS011;7272;53.668;9.578;2024-02-26T10:58:58;12.47;;;11.30;;
14377;SDS011;7272;53.668;9.578;2024-02-26T11:02:00;13.27;;;11.97;;
14377;SDS011;7272;53.668;9.578;2024-02-26T11:05:02;13.00;;;11.60;;
14377;SDS011;7272;53.668;9.578;2024-02-26T11:08:04;12.00;;;10.70;;
14377;SDS011;7272;53.668;9.578;2024-02-26T11:11:06;12.30;;;11.10;;
14377;SDS011;7272;53.668;9.578;2024-02-26T11:14:08;13.17;;;11.87;;
14377;SDS011;7272;53.668;9.578;2024-02-26T11:17:10;13.80;;;12.47;;
14377;SDS011;7272;53.668;9.578;2024-02-26T11:20:13;14.27;;;12.87;;
14377;SDS011;7272;53.668;9.578;2024-02-26T11:23:15;14.17;;;12.77;;
14377;SDS011;7272;53.668;9.578;2024-02-26T11:26:16;15.27;;;13.77;;
14377;SDS011;7272;53.668;9.578;2024-02-26T11:29:20;14.10;;;12.80;;
14377;SDS011;7272;53.668;9.578;2024-02-26T11:32:23;15.63;;;14.13;;
14377;SDS011;7272;53.668;9.578;2024-02-26T11:35:24;15.13;;;13.67;;
14377;SDS011;7272;53.668;9.578;2024-02-26T11:38:26;15.73;;;14.17;;
14377;SDS011;7272;53.668;9.578;2024-02-26T11:41:28;15.50;;;13.90;;
14377;SDS011;7272;53.668;9.578;2024-02-26T11:44:30;15.93;;;14.20;;
14377;SDS011;7272;53.668;9.578;2024-02-26T11:47:31;15.17;;;13.67;;
14377;SDS011;7272;53.668;9.578;2024-02-26T11:50:36;15.23;;;13.73;;
14377;SDS011;7272;53.668;9.578;2024-02-26T11:53:45;16.23;;;13.47;;
14377;SDS011;7272;53.668;9.578;2024-02-26T11:56:50;15.20;;;13.77;;
14377;SDS011;7272;53.668;9.578;2024-02-26T11:59:51;16.40;;;14.80;;
14377;SDS011;7272;53.668;9.578;2024-02-26T12:02:53;17.20;;;15.50;;
14377;SDS011;7272;53.668;9.578;2024-02-26T12:05:58;15.90;;;14.30;;
14377;SDS011;7272;53.668;9.578;2024-02-26T12:09:01;16.17;;;14.57;;
14377;SDS011;7272;53.668;9.578;2024-02-26T12:12:04;14.50;;;13.13;;
14377;SDS011;7272;53.668;9.578;2024-02-26T12:15:07;15.90;;;14.30;;
14377;SDS011;7272;53.668;9.578;2024-02-26T12:18:15;15.10;;;13.60;;
14377;SDS011;7272;53.668;9.578;2024-02-26T12:21:18;16.77;;;15.07;;
14377;SDS011;7272;53.668;9.578;2024-02-26T12:24:20;15.93;;;14.33;;
14377;SDS011;7272;53.668;9.578;2024-02-26T12:27:22;15.47;;;13.93;;
14377;SDS011;7272;53.668;9.578;2024-02-26T12:30:23;17.07;;;15.37;;
14377;SDS011;7272;53.668;9.578;2024-02-26T12:33:25;15.23;;;13.67;;
14377;SDS011;7272;53.668;9.578;2024-02-26T12:36:28;16.50;;;14.80;;
14377;SDS011;7272;53.668;9.578;2024-02-26T12:39:29;16.93;;;15.13;;
14377;SDS011;7272;53.668;9.578;2024-02-26T12:42:31;16.60;;;15.00;;
14377;SDS011;7272;53.668;9.578;2024-02-26T12:45:39;15.90;;;14.30;;
14377;SDS011;7272;53.668;9.578;2024-02-26T12:48:41;16.50;;;14.73;;
14377;SDS011;7272;53.668;9.578;2024-02-26T12:51:44;15.97;;;14.33;;
14377;SDS011;7272;53.668;9.578;2024-02-26T12:54:45;15.97;;;14.47;;
14377;SDS011;7272;53.668;9.578;2024-02-26T12:57:47;14.40;;;13.00;;
14377;SDS011;7272;53.668;9.578;2024-02-26T13:00:50;15.00;;;13.60;;
14377;SDS011;7272;53.668;9.578;2024-02-26T13:03:52;14.87;;;13.47;;
14377;SDS011;7272;53.668;9.578;2024-02-26T13:06:54;15.53;;;14.00;;
14377;SDS011;7272;53.668;9.578;2024-02-26T13:09:55;15.43;;;13.83;;
14377;SDS011;7272;53.668;9.578;2024-02-26T13:12:57;15.67;;;14.07;;
14377;SDS011;7272;53.668;9.578;2024-02-26T13:16:03;15.07;;;13.63;;
14377;SDS011;7272;53.668;9.578;2024-02-26T13:19:10;14.77;;;13.37;;
14377;SDS011;7272;53.668;9.578;2024-02-26T13:22:11;14.97;;;13.47;;
14377;SDS011;7272;53.668;9.578;2024-02-26T13:25:12;14.80;;;13.40;;
14377;SDS011;7272;53.668;9.578;2024-02-26T13:28:16;14.37;;;12.97;;
14377;SDS011;7272;53.668;9.578;2024-02-26T13:31:19;14.83;;;13.33;;
14377;SDS011;7272;53.668;9.578;2024-02-26T13:34:23;13.60;;;12.27;;
14377;SDS011;7272;53.668;9.578;2024-02-26T13:37:25;13.53;;;12.33;;
14377;SDS011;7272;53.668;9.578;2024-02-26T13:40:26;13.50;;;12.20;;
14377;SDS011;7272;53.668;9.578;2024-02-26T13:43:28;13.10;;;11.80;;
14377;SDS011;7272;53.668;9.578;2024-02-26T13:46:30;14.13;;;12.73;;
14377;SDS011;7272;53.668;9.578;2024-02-26T13:49:31;12.80;;;11.33;;
14377;SDS011;7272;53.668;9.578;2024-02-26T13:52:32;12.23;;;11.00;;
14377;SDS011;7272;53.668;9.578;2024-02-26T13:55:34;13.20;;;12.00;;
14377;SDS011;7272;53.668;9.578;2024-02-26T13:58:37;12.47;;;11.27;;
14377;SDS011;7272;53.668;9.578;2024-02-26T14:01:38;13.03;;;11.73;;
14377;SDS011;7272;53.668;9.578;2024-02-26T14:04:42;12.17;;;10.97;;
14377;SDS011;7272;53.668;9.578;2024-02-26T14:07:43;12.23;;;11.00;;
14377;SDS011;7272;53.668;9.578;2024-02-26T14:10:44;12.97;;;11.77;;
14377;SDS011;7272;53.668;9.578;2024-02-26T14:13:46;11.80;;;10.70;;
14377;SDS011;7272;53.668;9.578;2024-02-26T14:16:47;11.70;;;10.60;;
14377;SDS011;7272;53.668;9.578;2024-02-26T14:19:49;12.03;;;10.90;;
14377;SDS011;7272;53.668;9.578;2024-02-26T14:22:50;12.43;;;11.23;;
14377;SDS011;7272;53.668;9.578;2024-02-26T14:25:53;12.10;;;10.97;;
14377;SDS011;7272;53.668;9.578;2024-02-26T14:28:55;12.30;;;11.20;;
14377;SDS011;7272;53.668;9.578;2024-02-26T14:31:56;12.33;;;11.13;;
14377;SDS011;7272;53.668;9.578;2024-02-26T14:34:57;12.60;;;11.43;;
14377;SDS011;7272;53.668;9.578;2024-02-26T14:37:58;11.77;;;10.67;;
14377;SDS011;7272;53.668;9.578;2024-02-26T14:41:01;11.73;;;10.63;;
14377;SDS011;7272;53.668;9.578;2024-02-26T14:44:04;12.47;;;11.20;;
14377;SDS011;7272;53.668;9.578;2024-02-26T14:47:05;12.47;;;11.17;;
14377;SDS011;7272;53.668;9.578;2024-02-26T14:50:06;12.67;;;11.27;;
14377;SDS011;7272;53.668;9.578;2024-02-26T14:53:08;12.33;;;11.13;;
14377;SDS011;7272;53.668;9.578;2024-02-26T14:56:09;11.83;;;10.73;;
14377;SDS011;7272;53.668;9.578;2024-02-26T14:59:11;12.60;;;11.40;;
14377;SDS011;7272;53.668;9.578;2024-02-26T15:02:12;11.60;;;10.47;;
14377;SDS011;7272;53.668;9.578;2024-02-26T15:05:13;12.80;;;11.60;;
14377;SDS011;7272;53.668;9.578;2024-02-26T15:08:16;11.37;;;10.27;;
14377;SDS011;7272;53.668;9.578;2024-02-26T15:11:17;11.10;;;10.00;;
14377;SDS011;7272;53.668;9.578;2024-02-26T15:14:19;12.37;;;11.17;;
14377;SDS011;7272;53.668;9.578;2024-02-26T15:17:20;12.70;;;11.50;;
14377;SDS011;7272;53.668;9.578;2024-02-26T15:20:22;12.60;;;11.40;;
14377;SDS011;7272;53.668;9.578;2024-02-26T15:23:23;11.37;;;10.27;;
14377;SDS011;7272;53.668;9.578;2024-02-26T15:26:24;12.10;;;10.80;;
14377;SDS011;7272;53.668;9.578;2024-02-26T15:29:27;11.53;;;10.43;;
14377;SDS011;7272;53.668;9.578;2024-02-26T15:32:28;12.83;;;11.53;;
14377;SDS011;7272;53.668;9.578;2024-02-26T15:35:29;13.30;;;11.90;;
14377;SDS011;7272;53.668;9.578;2024-02-26T15:38:30;13.73;;;12.37;;
14377;SDS011;7272;53.668;9.578;2024-02-26T15:41:31;13.10;;;11.83;;
14377;SDS011;7272;53.668;9.578;2024-02-26T15:44:33;13.83;;;12.53;;
14377;SDS011;7272;53.668;9.578;2024-02-26T15:47:37;14.57;;;12.97;;
14377;SDS011;7272;53.668;9.578;2024-02-26T15:50:38;14.50;;;13.00;;
14377;SDS011;7272;53.668;9.578;2024-02-26T15:53:41;14.63;;;13.13;;
14377;SDS011;7272;53.668;9.578;2024-02-26T15:56:42;14.43;;;13.03;;
14377;SDS011;7272;53.668;9.578;2024-02-26T15:59:44;14.37;;;12.83;;
14377;SDS011;7272;53.668;9.578;2024-02-26T16:02:48;14.07;;;12.67;;
14377;SDS011;7272;53.668;9.578;2024-02-26T16:05:49;14.33;;;12.93;;
14377;SDS011;7272;53.668;9.578;2024-02-26T16:08:50;13.73;;;12.33;;
14377;SDS011;7272;53.668;9.578;2024-02-26T16:11:52;14.40;;;12.90;;
14377;SDS011;7272;53.668;9.578;2024-02-26T16:14:56;14.23;;;12.83;;
14377;SDS011;7272;53.668;9.578;2024-02-26T16:17:58;13.83;;;12.53;;
14377;SDS011;7272;53.668;9.578;2024-02-26T16:20:59;13.03;;;11.83;;
14377;SDS011;7272;53.668;9.578;2024-02-26T16:24:00;14.80;;;13.30;;
14377;SDS011;7272;53.668;9.578;2024-02-26T16:27:01;14.27;;;12.87;;
14377;SDS011;7272;53.668;9.578;2024-02-26T16:30:05;14.30;;;12.90;;
14377;SDS011;7272;53.668;9.578;2024-02-26T16:33:07;14.83;;;13.27;;
14377;SDS011;7272;53.668;9.578;2024-02-26T16:36:09;14.63;;;13.07;;
14377;SDS011;7272;53.668;9.578;2024-02-26T16:39:12;13.43;;;12.13;;
14377;SDS011;7272;53.668;9.578;2024-02-26T16:42:13;12.07;;;10.87;;
14377;SDS011;7272;53.668;9.578;2024-02-26T16:45:15;14.77;;;13.27;;
14377;SDS011;7272;53.668;9.578;2024-02-26T16:48:16;14.00;;;12.53;;
14377;SDS011;7272;53.668;9.578;2024-02-26T16:51:18;13.73;;;12.43;;
14377;SDS011;7272;53.668;9.578;2024-02-26T16:54:19;13.20;;;11.90;;
14377;SDS011;7272;53.668;9.578;2024-02-26T16:57:21;12.60;;;11.40;;
14377;SDS011;7272;53.668;9.578;2024-02-26T17:00:23;14.20;;;12.80;;
14377;SDS011;7272;53.668;9.578;2024-02-26T17:03:24;13.80;;;12.40;;
14377;SDS011;7272;53.668;9.578;2024-02-26T17:06:25;14.53;;;13.03;;
14377;SDS011;7272;53.668;9.578;2024-02-26T17:09:27;14.70;;;13.20;;
14377;SDS011;7272;53.668;9.578;2024-02-26T17:12:28;14.23;;;12.77;;
14377;SDS011;7272;53.668;9.578;2024-02-26T17:15:30;14.90;;;13.33;;
14377;SDS011;7272;53.668;9.578;2024-02-26T17:18:31;13.87;;;12.43;;
14377;SDS011;7272;53.668;9.578;2024-02-26T17:21:32;12.90;;;11.70;;
14377;SDS011;7272;53.668;9.578;2024-02-26T17:24:33;13.90;;;12.50;;
14377;SDS011;7272;53.668;9.578;2024-02-26T17:27:35;13.30;;;12.00;;
14377;SDS011;7272;53.668;9.578;2024-02-26T17:30:37;13.13;;;11.60;;
14377;SDS011;7272;53.668;9.578;2024-02-26T17:33:40;13.63;;;12.23;;
14377;SDS011;7272;53.668;9.578;2024-02-26T17:36:41;12.80;;;11.57;;
14377;SDS011;7272;53.668;9.578;2024-02-26T17:39:42;13.10;;;11.80;;
14377;SDS011;7272;53.668;9.578;2024-02-26T17:42:43;12.73;;;11.47;;
14377;SDS011;7272;53.668;9.578;2024-02-26T17:45:45;12.30;;;10.53;;
14377;SDS011;7272;53.668;9.578;2024-02-26T17:48:47;12.33;;;11.13;;
14377;SDS011;7272;53.668;9.578;2024-02-26T17:51:48;11.00;;;9.90;;
14377;SDS011;7272;53.668;9.578;2024-02-26T17:54:49;10.97;;;9.97;;
14377;SDS011;7272;53.668;9.578;2024-02-26T17:57:51;12.87;;;11.47;;
14377;SDS011;7272;53.668;9.578;2024-02-26T18:00:53;12.27;;;11.07;;